sensor_id;sensor_type;location;lat;lon;timestamp;P1;durP1;ratioP1;P2;durP2;ratioP2
63555;SDS011;49700;48.072;7.800;2023-01-10T00:01:10;2.57;;;1.90;;
63555;SDS011;49700;48.072;7.800;2023-01-10T00:03:35;3.40;;;1.40;;
63555;SDS011;49700;48.072;7.800;2023-01-10T00:06:00;1.20;;;1.07;;
63555;SDS011;49700;48.072;7.800;2023-01-10T00:08:26;2.03;;;1.27;;
63555;SDS011;49700;48.072;7.800;2023-01-10T00:10:51;2.33;;;1.17;;
63555;SDS011;49700;48.072;7.800;2023-01-10T00:13:17;3.17;;;1.27;;
63555;SDS011;49700;48.072;7.800;2023-01-10T00:15:52;7.55;;;1.30;;
63555;SDS011;49700;48.072;7.800;2023-01-10T00:18:18;1.98;;;1.33;;
63555;SDS011;49700;48.072;7.800;2023-01-10T00:20:45;2.20;;;1.40;;
63555;SDS011;49700;48.072;7.800;2023-01-10T00:23:12;1.40;;;1.20;;
63555;SDS011;49700;48.072;7.800;2023-01-10T00:25:37;5.43;;;1.07;;
63555;SDS011;49700;48.072;7.800;2023-01-10T00:28:03;2.42;;;0.88;;
63555;SDS011;49700;48.072;7.800;2023-01-10T00:30:46;1.08;;;0.95;;
63555;SDS011;49700;48.072;7.800;2023-01-10T00:33:31;1.95;;;0.90;;
63555;SDS011;49700;48.072;7.800;2023-01-10T00:36:01;2.47;;;1.42;;
63555;SDS011;49700;48.072;7.800;2023-01-10T00:38:28;1.92;;;1.27;;
63555;SDS011;49700;48.072;7.800;2023-01-10T00:40:55;1.40;;;1.08;;
63555;SDS011;49700;48.072;7.800;2023-01-10T00:43:20;1.80;;;1.00;;
63555;SDS011;49700;48.072;7.800;2023-01-10T00:46:04;5.43;;;1.10;;
63555;SDS011;49700;48.072;7.800;2023-01-10T00:48:31;3.33;;;1.05;;
63555;SDS011;49700;48.072;7.800;2023-01-10T00:50:57;1.47;;;0.70;;
63555;SDS011;49700;48.072;7.800;2023-01-10T00:53:22;1.37;;;1.10;;
63555;SDS011;49700;48.072;7.800;2023-01-10T00:55:47;1.97;;;1.07;;
63555;SDS011;49700;48.072;7.800;2023-01-10T00:58:13;1.47;;;0.87;;
63555;SDS011;49700;48.072;7.800;2023-01-10T01:00:40;0.80;;;0.75;;
63555;SDS011;49700;48.072;7.800;2023-01-10T01:03:06;2.15;;;0.80;;
63555;SDS011;49700;48.072;7.800;2023-01-10T01:05:32;2.80;;;0.90;;
63555;SDS011;49700;48.072;7.800;2023-01-10T01:07:58;2.90;;;1.30;;
63555;SDS011;49700;48.072;7.800;2023-01-10T01:10:24;1.57;;;0.67;;
63555;SDS011;49700;48.072;7.800;2023-01-10T01:12:59;3.80;;;1.00;;
63555;SDS011;49700;48.072;7.800;2023-01-10T01:15:31;2.40;;;0.80;;
63555;SDS011;49700;48.072;7.800;2023-01-10T01:17:58;1.35;;;0.80;;
63555;SDS011;49700;48.072;7.800;2023-01-10T01:20:24;3.00;;;1.00;;
63555;SDS011;49700;48.072;7.800;2023-01-10T01:22:49;3.23;;;1.73;;
63555;SDS011;49700;48.072;7.800;2023-01-10T01:25:14;1.57;;;1.00;;
63555;SDS011;49700;48.072;7.800;2023-01-10T01:27:40;0.97;;;0.87;;
63555;SDS011;49700;48.072;7.800;2023-01-10T01:30:06;1.37;;;0.80;;
63555;SDS011;49700;48.072;7.800;2023-01-10T01:32:32;2.60;;;0.80;;
63555;SDS011;49700;48.072;7.800;2023-01-10T01:34:58;1.75;;;1.02;;
63555;SDS011;49700;48.072;7.800;2023-01-10T01:37:23;5.97;;;1.73;;
63555;SDS011;49700;48.072;7.800;2023-01-10T01:39:49;1.43;;;0.93;;
63555;SDS011;49700;48.072;7.800;2023-01-10T01:42:48;1.13;;;0.80;;
63555;SDS011;49700;48.072;7.800;2023-01-10T01:47:45;10.45;;;1.30;;
63555;SDS011;49700;48.072;7.800;2023-01-10T01:52:56;3.05;;;1.00;;
63555;SDS011;49700;48.072;7.800;2023-01-10T01:55:24;3.85;;;1.23;;
63555;SDS011;49700;48.072;7.800;2023-01-10T01:57:53;1.20;;;1.10;;
63555;SDS011;49700;48.072;7.800;2023-01-10T02:00:20;1.10;;;0.90;;
63555;SDS011;49700;48.072;7.800;2023-01-10T02:02:48;1.50;;;0.80;;
63555;SDS011;49700;48.072;7.800;2023-01-10T02:05:15;2.05;;;1.00;;
63555;SDS011;49700;48.072;7.800;2023-01-10T02:07:44;4.55;;;0.90;;
63555;SDS011;49700;48.072;7.800;2023-01-10T02:10:13;2.05;;;1.02;;
63555;SDS011;49700;48.072;7.800;2023-01-10T02:12:44;6.47;;;1.55;;
63555;SDS011;49700;48.072;7.800;2023-01-10T02:15:11;7.55;;;1.27;;
63555;SDS011;49700;48.072;7.800;2023-01-10T02:17:38;1.48;;;1.10;;
63555;SDS011;49700;48.072;7.800;2023-01-10T02:36:30;2.10;;;1.33;;
63555;SDS011;49700;48.072;7.800;2023-01-10T02:39:10;7.38;;;1.00;;
63555;SDS011;49700;48.072;7.800;2023-01-10T02:44:30;4.43;;;1.55;;
63555;SDS011;49700;48.072;7.800;2023-01-10T02:47:02;4.70;;;1.20;;
63555;SDS011;49700;48.072;7.800;2023-01-10T02:49:28;2.97;;;1.20;;
63555;SDS011;49700;48.072;7.800;2023-01-10T02:51:54;3.67;;;1.67;;
63555;SDS011;49700;48.072;7.800;2023-01-10T02:54:21;2.17;;;1.30;;
63555;SDS011;49700;48.072;7.800;2023-01-10T03:05:28;3.55;;;1.63;;
63555;SDS011;49700;48.072;7.800;2023-01-10T03:08:26;3.97;;;1.20;;
63555;SDS011;49700;48.072;7.800;2023-01-10T03:10:58;2.10;;;1.30;;
63555;SDS011;49700;48.072;7.800;2023-01-10T03:16:22;4.50;;;2.15;;
63555;SDS011;49700;48.072;7.800;2023-01-10T03:18:52;2.97;;;1.50;;
63555;SDS011;49700;48.072;7.800;2023-01-10T03:21:22;3.53;;;1.70;;
63555;SDS011;49700;48.072;7.800;2023-01-10T03:23:49;5.03;;;2.15;;
63555;SDS011;49700;48.072;7.800;2023-01-10T03:26:22;3.33;;;1.40;;
63555;SDS011;49700;48.072;7.800;2023-01-10T03:28:58;1.77;;;1.17;;
63555;SDS011;49700;48.072;7.800;2023-01-10T03:31:35;3.70;;;1.10;;
63555;SDS011;49700;48.072;7.800;2023-01-10T03:34:06;4.10;;;1.50;;
63555;SDS011;49700;48.072;7.800;2023-01-10T03:39:18;3.97;;;1.27;;
63555;SDS011;49700;48.072;7.800;2023-01-10T03:41:52;2.05;;;1.00;;
63555;SDS011;49700;48.072;7.800;2023-01-10T03:50:06;1.35;;;1.00;;
63555;SDS011;49700;48.072;7.800;2023-01-10T03:52:38;1.85;;;1.20;;
63555;SDS011;49700;48.072;7.800;2023-01-10T03:55:06;1.55;;;0.98;;
63555;SDS011;49700;48.072;7.800;2023-01-10T03:57:35;1.73;;;1.50;;
63555;SDS011;49700;48.072;7.800;2023-01-10T04:00:01;2.00;;;0.90;;
63555;SDS011;49700;48.072;7.800;2023-01-10T04:02:29;1.50;;;1.10;;
63555;SDS011;49700;48.072;7.800;2023-01-10T04:04:56;3.17;;;1.10;;
63555;SDS011;49700;48.072;7.800;2023-01-10T04:07:23;3.00;;;1.10;;
63555;SDS011;49700;48.072;7.800;2023-01-10T04:09:49;2.08;;;1.17;;
63555;SDS011;49700;48.072;7.800;2023-01-10T04:12:15;1.80;;;0.80;;
63555;SDS011;49700;48.072;7.800;2023-01-10T04:14:40;2.93;;;1.10;;
63555;SDS011;49700;48.072;7.800;2023-01-10T04:17:06;1.77;;;1.20;;
63555;SDS011;49700;48.072;7.800;2023-01-10T04:19:31;1.97;;;1.00;;
63555;SDS011;49700;48.072;7.800;2023-01-10T04:21:57;3.77;;;1.07;;
63555;SDS011;49700;48.072;7.800;2023-01-10T04:24:22;2.10;;;1.20;;
63555;SDS011;49700;48.072;7.800;2023-01-10T04:26:48;3.73;;;0.90;;
63555;SDS011;49700;48.072;7.800;2023-01-10T04:29:13;2.00;;;0.83;;
63555;SDS011;49700;48.072;7.800;2023-01-10T04:31:40;2.53;;;1.33;;
63555;SDS011;49700;48.072;7.800;2023-01-10T04:34:06;1.15;;;1.00;;
63555;SDS011;49700;48.072;7.800;2023-01-10T04:36:32;2.60;;;1.45;;
63555;SDS011;49700;48.072;7.800;2023-01-10T04:38:57;2.17;;;1.20;;
63555;SDS011;49700;48.072;7.800;2023-01-10T04:41:23;3.83;;;1.57;;
63555;SDS011;49700;48.072;7.800;2023-01-10T04:43:48;2.67;;;1.40;;
63555;SDS011;49700;48.072;7.800;2023-01-10T04:46:14;2.40;;;1.50;;
63555;SDS011;49700;48.072;7.800;2023-01-10T04:48:40;2.50;;;1.40;;
63555;SDS011;49700;48.072;7.800;2023-01-10T04:51:06;5.93;;;1.20;;
63555;SDS011;49700;48.072;7.800;2023-01-10T04:53:31;2.10;;;1.37;;
63555;SDS011;49700;48.072;7.800;2023-01-10T04:56:03;2.57;;;1.13;;
63555;SDS011;49700;48.072;7.800;2023-01-10T04:58:36;3.17;;;1.90;;
63555;SDS011;49700;48.072;7.800;2023-01-10T05:01:09;6.15;;;3.08;;
63555;SDS011;49700;48.072;7.800;2023-01-10T05:03:36;2.55;;;1.20;;
63555;SDS011;49700;48.072;7.800;2023-01-10T05:06:01;6.87;;;1.60;;
63555;SDS011;49700;48.072;7.800;2023-01-10T05:08:27;2.33;;;1.30;;
63555;SDS011;49700;48.072;7.800;2023-01-10T05:10:53;5.10;;;2.30;;
63555;SDS011;49700;48.072;7.800;2023-01-10T05:13:18;3.17;;;2.17;;
63555;SDS011;49700;48.072;7.800;2023-01-10T05:15:43;2.13;;;1.30;;
63555;SDS011;49700;48.072;7.800;2023-01-10T05:18:09;2.53;;;1.67;;
63555;SDS011;49700;48.072;7.800;2023-01-10T05:20:37;3.70;;;2.27;;
63555;SDS011;49700;48.072;7.800;2023-01-10T05:23:14;1.42;;;1.33;;
63555;SDS011;49700;48.072;7.800;2023-01-10T05:25:41;2.45;;;1.30;;
63555;SDS011;49700;48.072;7.800;2023-01-10T05:28:10;1.63;;;1.48;;
63555;SDS011;49700;48.072;7.800;2023-01-10T05:30:35;3.03;;;2.23;;
63555;SDS011;49700;48.072;7.800;2023-01-10T05:33:04;11.60;;;5.97;;
63555;SDS011;49700;48.072;7.800;2023-01-10T05:35:29;3.97;;;1.80;;
63555;SDS011;49700;48.072;7.800;2023-01-10T05:37:55;2.65;;;1.65;;
63555;SDS011;49700;48.072;7.800;2023-01-10T05:40:24;1.93;;;1.20;;
63555;SDS011;49700;48.072;7.800;2023-01-10T05:42:59;4.28;;;1.30;;
63555;SDS011;49700;48.072;7.800;2023-01-10T05:45:30;1.85;;;1.30;;
63555;SDS011;49700;48.072;7.800;2023-01-10T05:47:56;3.33;;;2.43;;
63555;SDS011;49700;48.072;7.800;2023-01-10T05:50:24;7.57;;;4.70;;
63555;SDS011;49700;48.072;7.800;2023-01-10T05:52:49;2.70;;;2.00;;
63555;SDS011;49700;48.072;7.800;2023-01-10T05:55:18;4.13;;;2.13;;
63555;SDS011;49700;48.072;7.800;2023-01-10T05:57:43;4.95;;;1.80;;
63555;SDS011;49700;48.072;7.800;2023-01-10T06:00:18;3.03;;;2.03;;
63555;SDS011;49700;48.072;7.800;2023-01-10T06:02:50;3.22;;;1.48;;
63555;SDS011;49700;48.072;7.800;2023-01-10T06:05:15;2.80;;;1.60;;
63555;SDS011;49700;48.072;7.800;2023-01-10T06:07:41;2.43;;;1.43;;
63555;SDS011;49700;48.072;7.800;2023-01-10T06:10:07;1.57;;;1.20;;
63555;SDS011;49700;48.072;7.800;2023-01-10T06:12:33;6.20;;;1.50;;
63555;SDS011;49700;48.072;7.800;2023-01-10T06:15:13;2.72;;;1.30;;
63555;SDS011;49700;48.072;7.800;2023-01-10T06:17:39;2.28;;;1.58;;
63555;SDS011;49700;48.072;7.800;2023-01-10T06:20:08;2.00;;;1.50;;
63555;SDS011;49700;48.072;7.800;2023-01-10T06:22:35;1.60;;;1.50;;
63555;SDS011;49700;48.072;7.800;2023-01-10T06:25:03;5.57;;;2.77;;
63555;SDS011;49700;48.072;7.800;2023-01-10T06:27:29;12.63;;;6.90;;
63555;SDS011;49700;48.072;7.800;2023-01-10T06:29:54;8.17;;;2.40;;
63555;SDS011;49700;48.072;7.800;2023-01-10T06:32:20;7.32;;;1.60;;
63555;SDS011;49700;48.072;7.800;2023-01-10T06:34:46;3.30;;;2.17;;
63555;SDS011;49700;48.072;7.800;2023-01-10T06:37:11;5.80;;;3.70;;
63555;SDS011;49700;48.072;7.800;2023-01-10T06:39:37;11.23;;;5.50;;
63555;SDS011;49700;48.072;7.800;2023-01-10T06:42:03;7.22;;;3.30;;
63555;SDS011;49700;48.072;7.800;2023-01-10T06:44:29;7.67;;;3.00;;
63555;SDS011;49700;48.072;7.800;2023-01-10T06:46:54;8.17;;;4.43;;
63555;SDS011;49700;48.072;7.800;2023-01-10T06:49:19;8.73;;;1.90;;
63555;SDS011;49700;48.072;7.800;2023-01-10T06:51:45;6.50;;;2.27;;
63555;SDS011;49700;48.072;7.800;2023-01-10T06:54:10;2.30;;;1.43;;
63555;SDS011;49700;48.072;7.800;2023-01-10T06:56:36;3.77;;;1.50;;
63555;SDS011;49700;48.072;7.800;2023-01-10T06:59:01;6.37;;;3.60;;
63555;SDS011;49700;48.072;7.800;2023-01-10T07:01:27;5.80;;;2.73;;
63555;SDS011;49700;48.072;7.800;2023-01-10T07:03:52;9.13;;;3.87;;
63555;SDS011;49700;48.072;7.800;2023-01-10T07:06:18;12.77;;;8.20;;
63555;SDS011;49700;48.072;7.800;2023-01-10T07:08:45;7.77;;;4.47;;
63555;SDS011;49700;48.072;7.800;2023-01-10T07:11:20;7.05;;;2.85;;
63555;SDS011;49700;48.072;7.800;2023-01-10T07:13:46;3.20;;;1.90;;
63555;SDS011;49700;48.072;7.800;2023-01-10T07:16:13;3.50;;;1.30;;
63555;SDS011;49700;48.072;7.800;2023-01-10T07:18:40;3.40;;;1.63;;
63555;SDS011;49700;48.072;7.800;2023-01-10T07:21:07;3.55;;;1.25;;
63555;SDS011;49700;48.072;7.800;2023-01-10T07:23:33;4.78;;;1.98;;
63555;SDS011;49700;48.072;7.800;2023-01-10T07:26:07;4.82;;;1.77;;
63555;SDS011;49700;48.072;7.800;2023-01-10T07:28:34;2.58;;;2.10;;
63555;SDS011;49700;48.072;7.800;2023-01-10T07:31:00;1.77;;;1.00;;
63555;SDS011;49700;48.072;7.800;2023-01-10T07:33:27;4.70;;;1.70;;
63555;SDS011;49700;48.072;7.800;2023-01-10T07:35:53;3.17;;;2.08;;
63555;SDS011;49700;48.072;7.800;2023-01-10T07:38:18;4.30;;;1.73;;
63555;SDS011;49700;48.072;7.800;2023-01-10T07:40:46;3.57;;;1.73;;
63555;SDS011;49700;48.072;7.800;2023-01-10T07:43:11;5.50;;;2.13;;
63555;SDS011;49700;48.072;7.800;2023-01-10T07:45:37;2.30;;;1.53;;
63555;SDS011;49700;48.072;7.800;2023-01-10T07:48:03;12.60;;;2.13;;
63555;SDS011;49700;48.072;7.800;2023-01-10T07:50:30;2.85;;;1.80;;
63555;SDS011;49700;48.072;7.800;2023-01-10T07:52:58;1.77;;;1.00;;
63555;SDS011;49700;48.072;7.800;2023-01-10T07:55:24;3.50;;;1.48;;
63555;SDS011;49700;48.072;7.800;2023-01-10T07:57:50;1.40;;;1.20;;
63555;SDS011;49700;48.072;7.800;2023-01-10T08:00:16;11.88;;;4.43;;
63555;SDS011;49700;48.072;7.800;2023-01-10T08:02:42;5.00;;;3.40;;
63555;SDS011;49700;48.072;7.800;2023-01-10T08:05:08;6.70;;;3.80;;
63555;SDS011;49700;48.072;7.800;2023-01-10T08:07:34;7.63;;;3.00;;
63555;SDS011;49700;48.072;7.800;2023-01-10T08:09:59;2.80;;;2.10;;
63555;SDS011;49700;48.072;7.800;2023-01-10T08:12:25;3.00;;;2.03;;
63555;SDS011;49700;48.072;7.800;2023-01-10T08:14:50;6.10;;;2.10;;
63555;SDS011;49700;48.072;7.800;2023-01-10T08:17:16;6.97;;;1.92;;
63555;SDS011;49700;48.072;7.800;2023-01-10T08:19:43;3.90;;;1.77;;
63555;SDS011;49700;48.072;7.800;2023-01-10T08:22:08;5.23;;;2.30;;
63555;SDS011;49700;48.072;7.800;2023-01-10T08:24:34;5.40;;;2.57;;
63555;SDS011;49700;48.072;7.800;2023-01-10T08:26:59;8.10;;;3.80;;
63555;SDS011;49700;48.072;7.800;2023-01-10T08:29:26;6.28;;;3.28;;
63555;SDS011;49700;48.072;7.800;2023-01-10T08:31:52;6.90;;;2.55;;
63555;SDS011;49700;48.072;7.800;2023-01-10T08:34:17;7.67;;;3.67;;
63555;SDS011;49700;48.072;7.800;2023-01-10T08:36:49;4.60;;;3.08;;
63555;SDS011;49700;48.072;7.800;2023-01-10T08:39:16;6.65;;;3.20;;
63555;SDS011;49700;48.072;7.800;2023-01-10T08:41:41;5.00;;;2.73;;
63555;SDS011;49700;48.072;7.800;2023-01-10T08:44:07;1.83;;;1.40;;
63555;SDS011;49700;48.072;7.800;2023-01-10T08:46:32;6.93;;;1.80;;
63555;SDS011;49700;48.072;7.800;2023-01-10T08:48:57;8.00;;;2.60;;
63555;SDS011;49700;48.072;7.800;2023-01-10T08:51:23;5.10;;;2.17;;
63555;SDS011;49700;48.072;7.800;2023-01-10T08:53:48;8.10;;;3.20;;
63555;SDS011;49700;48.072;7.800;2023-01-10T08:56:13;5.50;;;3.67;;
63555;SDS011;49700;48.072;7.800;2023-01-10T08:58:39;3.83;;;2.70;;
63555;SDS011;49700;48.072;7.800;2023-01-10T09:01:05;7.37;;;2.90;;
63555;SDS011;49700;48.072;7.800;2023-01-10T09:03:32;6.00;;;1.85;;
63555;SDS011;49700;48.072;7.800;2023-01-10T09:05:58;5.18;;;1.88;;
63555;SDS011;49700;48.072;7.800;2023-01-10T09:08:25;5.30;;;1.98;;
63555;SDS011;49700;48.072;7.800;2023-01-10T09:10:50;4.73;;;1.60;;
63555;SDS011;49700;48.072;7.800;2023-01-10T09:13:16;5.53;;;2.50;;
63555;SDS011;49700;48.072;7.800;2023-01-10T09:15:41;5.50;;;1.90;;
63555;SDS011;49700;48.072;7.800;2023-01-10T09:18:08;6.27;;;1.60;;
63555;SDS011;49700;48.072;7.800;2023-01-10T09:20:36;4.80;;;2.63;;
63555;SDS011;49700;48.072;7.800;2023-01-10T09:23:05;5.25;;;2.55;;
63555;SDS011;49700;48.072;7.800;2023-01-10T09:25:32;5.05;;;3.17;;
63555;SDS011;49700;48.072;7.800;2023-01-10T09:27:58;10.00;;;3.60;;
63555;SDS011;49700;48.072;7.800;2023-01-10T09:30:25;7.85;;;2.88;;
63555;SDS011;49700;48.072;7.800;2023-01-10T09:32:52;9.55;;;3.17;;
63555;SDS011;49700;48.072;7.800;2023-01-10T09:35:17;7.40;;;3.47;;
63555;SDS011;49700;48.072;7.800;2023-01-10T09:37:43;8.30;;;2.60;;
63555;SDS011;49700;48.072;7.800;2023-01-10T09:40:09;6.93;;;2.20;;
63555;SDS011;49700;48.072;7.800;2023-01-10T09:42:43;5.55;;;3.40;;
63555;SDS011;49700;48.072;7.800;2023-01-10T09:45:17;3.80;;;2.33;;
63555;SDS011;49700;48.072;7.800;2023-01-10T09:50:21;2.92;;;2.08;;
63555;SDS011;49700;48.072;7.800;2023-01-10T09:52:55;6.38;;;1.60;;
63555;SDS011;49700;48.072;7.800;2023-01-10T09:55:51;5.32;;;2.72;;
63555;SDS011;49700;48.072;7.800;2023-01-10T09:58:19;5.82;;;2.00;;
63555;SDS011;49700;48.072;7.800;2023-01-10T10:00:50;2.78;;;2.17;;
63555;SDS011;49700;48.072;7.800;2023-01-10T10:05:55;6.78;;;2.35;;
63555;SDS011;49700;48.072;7.800;2023-01-10T10:08:21;3.60;;;2.38;;
63555;SDS011;49700;48.072;7.800;2023-01-10T10:19:18;3.25;;;2.13;;
63555;SDS011;49700;48.072;7.800;2023-01-10T10:22:07;3.42;;;2.03;;
63555;SDS011;49700;48.072;7.800;2023-01-10T10:27:32;5.25;;;2.30;;
63555;SDS011;49700;48.072;7.800;2023-01-10T10:37:55;6.45;;;2.08;;
63555;SDS011;49700;48.072;7.800;2023-01-10T10:40:27;6.53;;;1.63;;
63555;SDS011;49700;48.072;7.800;2023-01-10T10:42:58;3.35;;;1.50;;
63555;SDS011;49700;48.072;7.800;2023-01-10T10:45:39;1.70;;;1.20;;
63555;SDS011;49700;48.072;7.800;2023-01-10T10:48:24;3.22;;;1.48;;
63555;SDS011;49700;48.072;7.800;2023-01-10T10:53:53;6.20;;;2.08;;
63555;SDS011;49700;48.072;7.800;2023-01-10T10:56:21;4.50;;;2.03;;
63555;SDS011;49700;48.072;7.800;2023-01-10T10:58:50;9.98;;;1.95;;
63555;SDS011;49700;48.072;7.800;2023-01-10T11:01:20;3.35;;;1.40;;
63555;SDS011;49700;48.072;7.800;2023-01-10T11:06:32;8.75;;;1.73;;
63555;SDS011;49700;48.072;7.800;2023-01-10T11:09:02;8.93;;;1.88;;
63555;SDS011;49700;48.072;7.800;2023-01-10T11:11:32;5.03;;;1.30;;
63555;SDS011;49700;48.072;7.800;2023-01-10T11:14:05;2.88;;;1.67;;
63555;SDS011;49700;48.072;7.800;2023-01-10T11:16:33;11.77;;;1.65;;
63555;SDS011;49700;48.072;7.800;2023-01-10T11:21:34;6.22;;;1.63;;
63555;SDS011;49700;48.072;7.800;2023-01-10T11:24:00;4.07;;;1.83;;
63555;SDS011;49700;48.072;7.800;2023-01-10T11:26:27;5.27;;;2.27;;
63555;SDS011;49700;48.072;7.800;2023-01-10T11:29:12;4.57;;;1.55;;
63555;SDS011;49700;48.072;7.800;2023-01-10T11:31:39;9.48;;;2.08;;
63555;SDS011;49700;48.072;7.800;2023-01-10T11:34:07;9.32;;;2.40;;
63555;SDS011;49700;48.072;7.800;2023-01-10T11:36:58;4.25;;;2.30;;
63555;SDS011;49700;48.072;7.800;2023-01-10T11:39:26;5.68;;;2.40;;
63555;SDS011;49700;48.072;7.800;2023-01-10T11:41:52;8.52;;;2.72;;
63555;SDS011;49700;48.072;7.800;2023-01-10T11:44:26;7.07;;;1.90;;
63555;SDS011;49700;48.072;7.800;2023-01-10T11:46:57;4.90;;;1.75;;
63555;SDS011;49700;48.072;7.800;2023-01-10T11:49:27;9.30;;;2.10;;
63555;SDS011;49700;48.072;7.800;2023-01-10T11:52:05;7.82;;;2.45;;
63555;SDS011;49700;48.072;7.800;2023-01-10T11:54:39;3.78;;;1.90;;
63555;SDS011;49700;48.072;7.800;2023-01-10T11:57:06;5.90;;;2.00;;
63555;SDS011;49700;48.072;7.800;2023-01-10T11:59:38;5.50;;;1.50;;
63555;SDS011;49700;48.072;7.800;2023-01-10T12:02:16;4.90;;;2.00;;
63555;SDS011;49700;48.072;7.800;2023-01-10T12:04:47;8.15;;;2.15;;
63555;SDS011;49700;48.072;7.800;2023-01-10T12:07:15;6.18;;;2.20;;
63555;SDS011;49700;48.072;7.800;2023-01-10T12:09:56;4.00;;;1.80;;
63555;SDS011;49700;48.072;7.800;2023-01-10T12:12:24;5.40;;;1.75;;
63555;SDS011;49700;48.072;7.800;2023-01-10T12:14:54;6.68;;;2.53;;
63555;SDS011;49700;48.072;7.800;2023-01-10T12:19:50;4.10;;;1.90;;
63555;SDS011;49700;48.072;7.800;2023-01-10T12:22:17;2.40;;;1.50;;
63555;SDS011;49700;48.072;7.800;2023-01-10T12:24:45;7.63;;;2.55;;
63555;SDS011;49700;48.072;7.800;2023-01-10T12:27:15;3.13;;;1.67;;
63555;SDS011;49700;48.072;7.800;2023-01-10T12:32:41;2.55;;;1.20;;
63555;SDS011;49700;48.072;7.800;2023-01-10T12:35:13;2.25;;;1.40;;
63555;SDS011;49700;48.072;7.800;2023-01-10T12:42:54;2.72;;;1.35;;
63555;SDS011;49700;48.072;7.800;2023-01-10T12:45:51;4.38;;;2.45;;
63555;SDS011;49700;48.072;7.800;2023-01-10T12:48:22;5.65;;;1.83;;
63555;SDS011;49700;48.072;7.800;2023-01-10T12:50:53;6.10;;;1.65;;
63555;SDS011;49700;48.072;7.800;2023-01-10T12:55:59;3.88;;;2.45;;
63555;SDS011;49700;48.072;7.800;2023-01-10T13:01:15;5.20;;;1.52;;
63555;SDS011;49700;48.072;7.800;2023-01-10T13:03:44;8.23;;;2.97;;
63555;SDS011;49700;48.072;7.800;2023-01-10T13:06:32;6.50;;;2.63;;
63555;SDS011;49700;48.072;7.800;2023-01-10T13:09:02;4.05;;;1.30;;
63555;SDS011;49700;48.072;7.800;2023-01-10T13:11:32;7.03;;;2.17;;
63555;SDS011;49700;48.072;7.800;2023-01-10T13:14:06;3.28;;;1.90;;
63555;SDS011;49700;48.072;7.800;2023-01-10T13:16:41;6.60;;;1.83;;
63555;SDS011;49700;48.072;7.800;2023-01-10T13:21:35;5.23;;;2.00;;
63555;SDS011;49700;48.072;7.800;2023-01-10T13:27:00;9.50;;;3.83;;
63555;SDS011;49700;48.072;7.800;2023-01-10T13:29:28;2.97;;;1.58;;
63555;SDS011;49700;48.072;7.800;2023-01-10T13:31:56;6.45;;;1.60;;
63555;SDS011;49700;48.072;7.800;2023-01-10T13:34:33;4.53;;;1.90;;
63555;SDS011;49700;48.072;7.800;2023-01-10T13:37:01;8.68;;;2.40;;
63555;SDS011;49700;48.072;7.800;2023-01-10T13:39:35;5.15;;;2.70;;
63555;SDS011;49700;48.072;7.800;2023-01-10T13:42:08;5.35;;;1.73;;
63555;SDS011;49700;48.072;7.800;2023-01-10T13:50:42;3.33;;;1.40;;
63555;SDS011;49700;48.072;7.800;2023-01-10T14:00:42;3.00;;;1.85;;
63555;SDS011;49700;48.072;7.800;2023-01-10T14:03:36;5.35;;;3.30;;
63555;SDS011;49700;48.072;7.800;2023-01-10T14:06:02;3.40;;;2.10;;
63555;SDS011;49700;48.072;7.800;2023-01-10T14:08:32;2.47;;;1.80;;
63555;SDS011;49700;48.072;7.800;2023-01-10T14:11:08;3.53;;;2.57;;
63555;SDS011;49700;48.072;7.800;2023-01-10T14:13:35;8.48;;;2.33;;
63555;SDS011;49700;48.072;7.800;2023-01-10T14:16:01;8.25;;;1.73;;
63555;SDS011;49700;48.072;7.800;2023-01-10T14:18:36;6.13;;;2.07;;
63555;SDS011;49700;48.072;7.800;2023-01-10T14:21:07;3.15;;;1.65;;
63555;SDS011;49700;48.072;7.800;2023-01-10T14:25:59;4.77;;;1.67;;
63555;SDS011;49700;48.072;7.800;2023-01-10T14:28:29;2.67;;;1.40;;
63555;SDS011;49700;48.072;7.800;2023-01-10T14:33:32;4.40;;;1.65;;
63555;SDS011;49700;48.072;7.800;2023-01-10T14:36:15;3.30;;;1.50;;
63555;SDS011;49700;48.072;7.800;2023-01-10T14:38:44;1.90;;;1.75;;
63555;SDS011;49700;48.072;7.800;2023-01-10T14:41:13;2.30;;;1.45;;
63555;SDS011;49700;48.072;7.800;2023-01-10T14:43:53;5.15;;;2.08;;
63555;SDS011;49700;48.072;7.800;2023-01-10T14:46:44;5.03;;;1.92;;
63555;SDS011;49700;48.072;7.800;2023-01-10T14:51:45;3.58;;;1.40;;
63555;SDS011;49700;48.072;7.800;2023-01-10T14:54:14;3.85;;;1.67;;
63555;SDS011;49700;48.072;7.800;2023-01-10T14:56:42;3.15;;;1.60;;
63555;SDS011;49700;48.072;7.800;2023-01-10T14:59:25;2.72;;;1.60;;
63555;SDS011;49700;48.072;7.800;2023-01-10T15:02:01;3.75;;;1.80;;
63555;SDS011;49700;48.072;7.800;2023-01-10T15:04:36;5.18;;;1.40;;
63555;SDS011;49700;48.072;7.800;2023-01-10T15:07:10;6.93;;;1.58;;
63555;SDS011;49700;48.072;7.800;2023-01-10T15:09:46;2.50;;;1.38;;
63555;SDS011;49700;48.072;7.800;2023-01-10T15:12:12;5.13;;;2.10;;
63555;SDS011;49700;48.072;7.800;2023-01-10T15:14:40;4.95;;;1.60;;
63555;SDS011;49700;48.072;7.800;2023-01-10T15:17:05;3.60;;;1.40;;
63555;SDS011;49700;48.072;7.800;2023-01-10T15:19:37;4.35;;;2.28;;
63555;SDS011;49700;48.072;7.800;2023-01-10T15:22:22;2.40;;;2.00;;
63555;SDS011;49700;48.072;7.800;2023-01-10T15:24:56;3.65;;;2.15;;
63555;SDS011;49700;48.072;7.800;2023-01-10T15:27:49;3.00;;;1.83;;
63555;SDS011;49700;48.072;7.800;2023-01-10T15:30:17;6.22;;;2.47;;
63555;SDS011;49700;48.072;7.800;2023-01-10T15:32:49;5.70;;;3.40;;
63555;SDS011;49700;48.072;7.800;2023-01-10T15:35:18;5.43;;;3.33;;
63555;SDS011;49700;48.072;7.800;2023-01-10T15:37:51;6.05;;;3.20;;
63555;SDS011;49700;48.072;7.800;2023-01-10T15:40:23;8.35;;;2.92;;
63555;SDS011;49700;48.072;7.800;2023-01-10T15:45:41;4.30;;;2.08;;
63555;SDS011;49700;48.072;7.800;2023-01-10T15:53:48;9.75;;;3.45;;
63555;SDS011;49700;48.072;7.800;2023-01-10T15:56:24;25.65;;;13.15;;
63555;SDS011;49700;48.072;7.800;2023-01-10T15:58:52;64.88;;;29.50;;
63555;SDS011;49700;48.072;7.800;2023-01-10T16:01:19;55.85;;;29.25;;
63555;SDS011;49700;48.072;7.800;2023-01-10T16:03:51;28.40;;;16.03;;
63555;SDS011;49700;48.072;7.800;2023-01-10T16:06:36;58.92;;;30.55;;
63555;SDS011;49700;48.072;7.800;2023-01-10T16:09:06;27.42;;;16.83;;
63555;SDS011;49700;48.072;7.800;2023-01-10T16:11:51;23.58;;;13.43;;
63555;SDS011;49700;48.072;7.800;2023-01-10T16:14:35;18.52;;;11.45;;
63555;SDS011;49700;48.072;7.800;2023-01-10T16:17:02;8.32;;;5.55;;
63555;SDS011;49700;48.072;7.800;2023-01-10T16:19:28;7.63;;;5.22;;
63555;SDS011;49700;48.072;7.800;2023-01-10T16:22:03;10.60;;;5.70;;
63555;SDS011;49700;48.072;7.800;2023-01-10T16:25:12;14.05;;;7.05;;
63555;SDS011;49700;48.072;7.800;2023-01-10T16:27:55;11.60;;;7.90;;
63555;SDS011;49700;48.072;7.800;2023-01-10T16:30:29;14.38;;;7.50;;
63555;SDS011;49700;48.072;7.800;2023-01-10T16:33:20;11.80;;;6.88;;
63555;SDS011;49700;48.072;7.800;2023-01-10T16:35:57;8.75;;;6.45;;
63555;SDS011;49700;48.072;7.800;2023-01-10T16:38:56;9.27;;;5.97;;
63555;SDS011;49700;48.072;7.800;2023-01-10T16:41:30;11.02;;;6.95;;
63555;SDS011;49700;48.072;7.800;2023-01-10T16:44:15;22.55;;;15.02;;
63555;SDS011;49700;48.072;7.800;2023-01-10T16:46:49;34.65;;;22.05;;
63555;SDS011;49700;48.072;7.800;2023-01-10T16:49:16;24.52;;;15.68;;
63555;SDS011;49700;48.072;7.800;2023-01-10T16:51:42;13.63;;;9.63;;
63555;SDS011;49700;48.072;7.800;2023-01-10T16:54:12;13.47;;;9.43;;
63555;SDS011;49700;48.072;7.800;2023-01-10T16:56:39;13.43;;;8.35;;
63555;SDS011;49700;48.072;7.800;2023-01-10T16:59:04;16.17;;;11.23;;
63555;SDS011;49700;48.072;7.800;2023-01-10T17:01:30;15.57;;;11.13;;
63555;SDS011;49700;48.072;7.800;2023-01-10T17:04:04;10.85;;;9.70;;
63555;SDS011;49700;48.072;7.800;2023-01-10T17:07:45;8.18;;;6.38;;
63555;SDS011;49700;48.072;7.800;2023-01-10T17:10:11;14.13;;;10.40;;